createdAt,value
2023-04-24T00:01:30.331Z,191.29
2023-04-24T00:04:36.510Z,183.27
2023-04-24T00:07:45.291Z,169.73
2023-04-24T00:10:51.397Z,183.68
2023-04-24T00:13:58.363Z,176.68
2023-04-24T00:17:07.684Z,185.96
2023-04-24T00:20:15.984Z,184.35
2023-04-24T00:23:22.095Z,187.61
2023-04-24T00:26:28.941Z,191.29
2023-04-24T00:29:35.016Z,197.87
2023-04-24T00:32:44.572Z,208.00
2023-04-24T00:35:50.945Z,221.67
2023-04-24T00:38:57.709Z,230.53
2023-04-24T00:42:03.894Z,234.63
2023-04-24T00:45:12.249Z,244.74
2023-04-24T00:48:21.012Z,253.57
2023-04-24T00:51:28.708Z,258.16
2023-04-24T00:54:34.636Z,256.51
2023-04-24T00:57:41.712Z,254.54
2023-04-24T01:00:49.161Z,252.48
2023-04-24T01:04:01.760Z,236.08
2023-04-24T01:07:11.959Z,219.98
2023-04-24T01:10:21.736Z,196.39
2023-04-24T01:13:28.175Z,202.26
2023-04-24T01:16:34.978Z,199.70
2023-04-24T01:19:46.270Z,171.71
2023-04-24T01:22:56.161Z,174.34
2023-04-24T01:26:03.148Z,182.43
2023-04-24T01:29:11.761Z,179.24
2023-04-24T01:32:18.562Z,190.04
2023-04-24T01:35:25.610Z,191.10
2023-04-24T01:38:34.195Z,197.72
2023-04-24T01:41:40.972Z,182.57
2023-04-24T01:44:47.835Z,180.01
2023-04-24T01:47:56.354Z,184.50
2023-04-24T01:51:04.112Z,180.79
2023-04-24T01:54:13.445Z,189.77
2023-04-24T01:57:21.100Z,183.72
2023-04-24T02:00:28.614Z,184.82
2023-04-24T02:03:34.851Z,190.29
2023-04-24T02:06:41.936Z,193.40
2023-04-24T02:09:50.996Z,185.64
2023-04-24T02:12:57.854Z,175.26
2023-04-24T02:16:04.146Z,166.76
2023-04-24T02:19:11.281Z,162.26
2023-04-24T02:22:17.209Z,162.40
2023-04-24T02:25:27.341Z,156.20
2023-04-24T02:28:35.090Z,145.25
2023-04-24T02:31:41.920Z,131.92
2023-04-24T02:34:48.203Z,130.11
2023-04-24T02:37:55.363Z,135.92
2023-04-24T02:41:07.454Z,127.70
2023-04-24T02:44:14.269Z,127.76
2023-04-24T02:47:20.463Z,128.79
2023-04-24T02:50:30.012Z,128.36
2023-04-24T02:53:35.958Z,124.12
2023-04-24T02:56:45.778Z,119.98
2023-04-24T02:59:51.893Z,124.40
2023-04-24T03:02:58.991Z,120.87
2023-04-24T03:06:07.042Z,122.80
2023-04-24T03:09:14.017Z,125.06
2023-04-24T03:12:25.059Z,127.83
2023-04-24T03:15:31.960Z,125.29
2023-04-24T03:18:38.034Z,129.15
2023-04-24T03:21:46.567Z,133.77
2023-04-24T03:24:52.743Z,132.86
2023-04-24T03:28:02.966Z,135.74
2023-04-24T03:31:18.366Z,143.29
2023-04-24T03:34:25.653Z,144.55
2023-04-24T03:37:32.099Z,143.42
2023-04-24T03:40:59.128Z,147.45
2023-04-24T03:44:30.331Z,141.79
2023-04-24T03:47:37.154Z,140.13
2023-04-24T03:50:45.286Z,140.80
2023-04-24T03:53:53.828Z,143.57
2023-04-24T03:57:02.789Z,139.86
2023-04-24T04:00:17.039Z,140.90
2023-04-24T04:03:28.245Z,139.77
2023-04-24T04:06:35.160Z,146.90
2023-04-24T04:09:41.677Z,147.72
2023-04-24T04:12:48.830Z,153.52
2023-04-24T04:15:57.535Z,146.89
2023-04-24T04:19:04.641Z,141.77
2023-04-24T04:22:10.728Z,145.68
2023-04-24T04:25:26.938Z,140.75
2023-04-24T04:28:34.428Z,147.83
2023-04-24T04:31:46.330Z,142.75
2023-04-24T04:34:54.637Z,142.50
2023-04-24T04:38:09.774Z,133.79
2023-04-24T04:41:26.427Z,124.95
2023-04-24T04:44:34.433Z,118.22
2023-04-24T04:47:43.560Z,121.82
2023-04-24T04:50:50.946Z,124.73
2023-04-24T04:53:57.450Z,120.87
2023-04-24T04:57:05.062Z,128.34
2023-04-24T05:00:15.138Z,135.19
2023-04-24T05:03:31.362Z,137.45
2023-04-24T05:06:42.824Z,140.85
2023-04-24T05:09:49.654Z,146.35
2023-04-24T05:12:55.772Z,158.76
2023-04-24T05:16:09.468Z,155.62
2023-04-24T05:19:34.217Z,160.85
2023-04-24T05:22:41.385Z,148.88
2023-04-24T05:25:52.545Z,143.08
2023-04-24T05:29:01.524Z,149.92
2023-04-24T05:32:19.983Z,149.03
2023-04-24T05:35:29.633Z,146.55
2023-04-24T05:38:35.951Z,140.95
2023-04-24T05:41:42.759Z,133.37
2023-04-24T05:44:49.182Z,127.80
2023-04-24T05:47:57.108Z,122.20
2023-04-24T05:51:06.505Z,126.51
2023-04-24T05:54:13.529Z,112.77
2023-04-24T05:57:20.467Z,115.76
2023-04-24T06:00:59.876Z,110.78
2023-04-24T06:04:07.157Z,110.94
2023-04-24T06:07:17.109Z,105.51
2023-04-24T06:10:23.728Z,105.38
2023-04-24T06:13:30.883Z,103.79
2023-04-24T06:16:55.930Z,101.17
2023-04-24T06:20:14.166Z,100.71
2023-04-24T06:23:22.947Z,100.84
2023-04-24T06:26:30.634Z,98.34
2023-04-24T06:29:38.178Z,97.68
2023-04-24T06:32:58.649Z,94.95
2023-04-24T06:36:09.533Z,90.24
2023-04-24T06:39:18.917Z,89.39
2023-04-24T06:42:26.036Z,93.75
2023-04-24T06:45:33.041Z,90.96
2023-04-24T06:48:39.653Z,97.65
2023-04-24T06:51:47.066Z,92.64
2023-04-24T06:54:55.580Z,96.99
2023-04-24T06:58:08.216Z,95.11
2023-04-24T07:01:14.566Z,96.80
2023-04-24T07:04:22.360Z,93.96
2023-04-24T07:07:28.930Z,85.10
2023-04-24T07:10:38.717Z,82.01
2023-04-24T07:13:45.517Z,82.39
2023-04-24T07:16:53.158Z,77.52
2023-04-24T07:19:59.306Z,82.24
2023-04-24T07:23:06.946Z,80.14
2023-04-24T07:26:16.233Z,78.52
2023-04-24T07:29:24.904Z,76.64
2023-04-24T07:32:32.893Z,84.23
2023-04-24T07:35:39.753Z,73.32
2023-04-24T07:38:46.125Z,75.20
2023-04-24T07:41:55.430Z,73.96
2023-04-24T07:45:01.587Z,72.33
2023-04-24T07:48:10.303Z,75.78
2023-04-24T07:51:16.464Z,75.20
2023-04-24T07:54:23.407Z,72.03
2023-04-24T07:57:32.596Z,81.95
2023-04-24T08:00:40.594Z,92.26
2023-04-24T08:03:46.829Z,82.13
2023-04-24T08:06:53.837Z,73.99
2023-04-24T08:10:00.677Z,70.55
2023-04-24T08:13:10.338Z,77.25
2023-04-24T08:16:16.755Z,65.44
2023-04-24T08:19:23.574Z,66.90
2023-04-24T08:22:29.468Z,70.33
2023-04-24T08:25:36.641Z,68.08
2023-04-24T08:28:45.342Z,64.64
2023-04-24T08:31:52.176Z,67.42
2023-04-24T08:34:58.103Z,63.60
2023-04-24T08:38:05.144Z,64.93
2023-04-24T08:41:13.769Z,62.22
2023-04-24T08:44:24.548Z,63.49
2023-04-24T08:47:33.511Z,68.31
2023-04-24T08:50:44.011Z,69.52
2023-04-24T08:53:51.430Z,65.98
2023-04-24T08:57:05.002Z,67.86
2023-04-24T09:00:15.952Z,69.41
2023-04-24T09:03:25.577Z,67.16
2023-04-24T09:06:33.427Z,70.04
2023-04-24T09:09:43.521Z,68.33
2023-04-24T09:12:51.016Z,71.50
2023-04-24T09:16:01.948Z,68.52
2023-04-24T09:19:08.005Z,65.87
2023-04-24T09:22:16.346Z,71.05
2023-04-24T09:25:22.964Z,69.91
2023-04-24T09:28:36.378Z,66.78
2023-04-24T09:31:45.030Z,61.59
2023-04-24T09:34:52.920Z,57.89
2023-04-24T09:38:02.403Z,55.47
2023-04-24T09:41:12.560Z,62.17
2023-04-24T09:44:22.196Z,60.17
2023-04-24T09:47:32.044Z,62.32
2023-04-24T09:50:38.659Z,59.92
2023-04-24T09:53:51.206Z,65.83
2023-04-24T09:57:04.078Z,66.05
2023-04-24T10:00:14.244Z,66.40
2023-04-24T10:03:23.679Z,64.43
2023-04-24T10:06:37.476Z,62.59
2023-04-24T10:09:43.724Z,61.71
2023-04-24T10:12:52.183Z,63.91
2023-04-24T10:16:00.289Z,66.90
2023-04-24T10:19:10.979Z,80.59
2023-04-24T10:22:19.810Z,113.69
2023-04-24T10:25:29.952Z,100.94
2023-04-24T10:28:39.563Z,76.01
2023-04-24T10:31:48.383Z,75.06
2023-04-24T10:34:57.929Z,84.34
2023-04-24T10:38:13.140Z,80.66
2023-04-24T10:41:24.511Z,75.98
2023-04-24T10:44:41.177Z,73.35
2023-04-24T10:47:47.365Z,73.69
2023-04-24T10:50:57.824Z,76.37
2023-04-24T10:54:03.642Z,76.23
2023-04-24T10:57:32.907Z,79.30
2023-04-24T11:00:42.406Z,71.09
2023-04-24T11:04:00.776Z,68.85
2023-04-24T11:07:09.920Z,71.11
2023-04-24T11:10:30.379Z,70.76
2023-04-24T11:14:14.315Z,74.92
2023-04-24T11:17:34.833Z,78.14
2023-04-24T11:20:45.894Z,77.33
2023-04-24T11:23:55.385Z,79.11
2023-04-24T11:27:09.211Z,82.17
2023-04-24T11:30:21.612Z,82.88
2023-04-24T11:33:37.656Z,88.76
2023-04-24T11:36:51.358Z,83.48
2023-04-24T11:40:03.245Z,83.03
2023-04-24T11:43:11.148Z,82.05
2023-04-24T11:46:21.281Z,80.29
2023-04-24T11:49:28.906Z,83.14
2023-04-24T11:52:36.562Z,83.35
2023-04-24T11:55:48.226Z,84.42
2023-04-24T11:58:57.426Z,86.04
2023-04-24T12:02:04.421Z,82.70
2023-04-24T12:05:13.416Z,88.22
2023-04-24T12:08:33.003Z,81.78
2023-04-24T12:11:58.206Z,83.13
2023-04-24T12:15:15.465Z,75.44
2023-04-24T12:18:21.518Z,76.53
2023-04-24T12:21:31.649Z,78.19
2023-04-24T12:25:04.935Z,74.67
2023-04-24T12:28:17.666Z,68.97
2023-04-24T12:31:26.378Z,68.93
2023-04-24T12:34:35.782Z,58.64
2023-04-24T12:37:45.041Z,58.87
2023-04-24T12:41:08.384Z,58.50
2023-04-24T12:44:17.886Z,55.70
2023-04-24T12:47:24.631Z,52.61
2023-04-24T12:50:30.509Z,55.32
2023-04-24T12:53:37.312Z,52.33
2023-04-24T12:56:43.319Z,52.69
2023-04-24T12:59:52.781Z,56.90
2023-04-24T13:02:59.173Z,55.61
2023-04-24T13:06:09.232Z,59.48
2023-04-24T13:09:15.148Z,57.97
2023-04-24T13:12:25.140Z,57.19
2023-04-24T13:15:39.953Z,60.96
2023-04-24T13:18:46.910Z,67.72
2023-04-24T13:21:53.224Z,68.18
2023-04-24T13:25:01.156Z,73.35
2023-04-24T13:28:07.546Z,76.08
2023-04-24T13:31:18.245Z,79.60
2023-04-24T13:34:24.385Z,80.52
2023-04-24T13:37:33.093Z,84.03
2023-04-24T13:40:49.252Z,88.64
2023-04-24T13:43:56.001Z,89.78
2023-04-24T13:47:04.666Z,93.06
2023-04-24T13:50:13.458Z,97.59
2023-04-24T13:53:19.525Z,97.25
2023-04-24T13:56:27.015Z,97.21
2023-04-24T13:59:32.979Z,105.26
2023-04-24T14:02:42.678Z,108.59
2023-04-24T14:05:48.622Z,109.47
2023-04-24T14:08:56.083Z,106.56
2023-04-24T14:12:08.227Z,102.09
2023-04-24T14:15:16.377Z,88.44
2023-04-24T14:18:24.910Z,83.94
2023-04-24T14:21:31.844Z,77.66
2023-04-24T14:24:37.799Z,66.06
2023-04-24T14:27:44.632Z,64.89
2023-04-24T14:30:50.986Z,72.08
2023-04-24T14:34:00.356Z,70.81
2023-04-24T14:37:06.457Z,69.74
2023-04-24T14:40:39.656Z,63.09
2023-04-24T14:43:46.238Z,61.62
2023-04-24T14:46:53.708Z,58.89
2023-04-24T14:50:03.128Z,57.61
2023-04-24T14:53:12.281Z,63.18
2023-04-24T14:56:19.385Z,53.70
2023-04-24T14:59:26.281Z,54.04
2023-04-24T15:02:32.431Z,53.44
2023-04-24T15:05:42.247Z,56.09
2023-04-24T15:08:50.225Z,54.50
2023-04-24T15:11:57.888Z,50.72
2023-04-24T15:15:03.977Z,58.56
2023-04-24T15:18:12.994Z,66.62
2023-04-24T15:21:23.188Z,60.95
2023-04-24T15:24:29.939Z,56.27
2023-04-24T15:27:45.212Z,57.57
2023-04-24T15:30:52.222Z,59.65
2023-04-24T15:34:01.154Z,63.11
2023-04-24T15:37:10.932Z,69.68
2023-04-24T15:40:24.089Z,62.02
2023-04-24T15:43:32.406Z,63.99
2023-04-24T15:46:39.599Z,67.02
2023-04-24T15:49:46.624Z,67.62
2023-04-24T15:52:55.220Z,68.27
2023-04-24T15:56:03.121Z,70.28
2023-04-24T15:59:10.038Z,77.71
2023-04-24T16:02:21.059Z,82.55
2023-04-24T16:05:27.141Z,80.49
2023-04-24T16:08:36.589Z,80.75
2023-04-24T16:11:43.163Z,79.83
2023-04-24T16:14:49.956Z,80.66
2023-04-24T16:17:55.975Z,84.15
2023-04-24T16:21:02.884Z,88.72
2023-04-24T16:24:11.993Z,87.79
2023-04-24T16:27:19.311Z,87.49
2023-04-24T16:30:25.496Z,90.40
2023-04-24T16:33:32.405Z,88.48
2023-04-24T16:36:39.286Z,91.59
2023-04-24T16:39:48.881Z,98.11
2023-04-24T16:43:01.798Z,98.91
2023-04-24T16:46:15.424Z,101.36
2023-04-24T16:49:21.486Z,96.54
2023-04-24T16:52:28.273Z,100.05
2023-04-24T16:55:36.848Z,111.31
2023-04-24T16:58:43.663Z,100.55
2023-04-24T17:01:50.158Z,111.21
2023-04-24T17:04:57.086Z,101.06
2023-04-24T17:08:03.122Z,97.35
2023-04-24T17:11:12.525Z,117.83
2023-04-24T17:14:18.427Z,190.41
2023-04-24T17:17:26.227Z,214.85
2023-04-24T17:20:32.287Z,189.21
2023-04-24T17:23:39.774Z,135.63
2023-04-24T17:26:48.422Z,119.01
2023-04-24T17:29:56.330Z,121.71
2023-04-24T17:33:02.347Z,122.47
2023-04-24T17:36:24.749Z,124.07
2023-04-24T17:39:31.567Z,122.67
2023-04-24T17:42:44.335Z,127.66
2023-04-24T17:45:53.238Z,142.66
2023-04-24T17:49:00.248Z,154.12
2023-04-24T17:52:08.001Z,156.25
2023-04-24T17:55:15.380Z,162.90
2023-04-24T17:58:24.103Z,158.28
2023-04-24T18:01:31.175Z,180.23
2023-04-24T18:04:39.434Z,159.43
2023-04-24T18:07:46.262Z,148.24
2023-04-24T18:10:53.128Z,170.67
2023-04-24T18:14:12.932Z,223.84
2023-04-24T18:17:28.883Z,212.39
2023-04-24T18:20:47.021Z,191.83
2023-04-24T18:23:55.525Z,187.05
2023-04-24T18:27:02.579Z,193.68
2023-04-24T18:30:16.741Z,193.36
2023-04-24T18:33:23.682Z,203.65
2023-04-24T18:36:29.545Z,221.42
2023-04-24T18:39:37.160Z,222.86
2023-04-24T18:42:43.756Z,226.69
2023-04-24T18:45:53.236Z,238.41
2023-04-24T18:49:04.931Z,241.45
2023-04-24T18:52:11.836Z,241.41
2023-04-24T18:55:17.809Z,258.35
2023-04-24T18:58:24.725Z,302.77
2023-04-24T19:01:35.092Z,306.20
2023-04-24T19:04:48.771Z,336.32
2023-04-24T19:08:00.590Z,293.26
2023-04-24T19:11:09.632Z,288.48
2023-04-24T19:14:17.650Z,285.62
2023-04-24T19:17:27.047Z,286.76
2023-04-24T19:20:34.276Z,290.47
2023-04-24T19:23:41.666Z,292.47
2023-04-24T19:26:47.849Z,294.34
2023-04-24T19:29:55.103Z,293.72
2023-04-24T19:33:03.654Z,299.05
2023-04-24T19:36:11.025Z,305.45
2023-04-24T19:39:17.170Z,312.00
2023-04-24T19:42:36.336Z,295.85
2023-04-24T19:45:51.003Z,293.11
2023-04-24T19:49:00.711Z,280.80
2023-04-24T19:52:09.590Z,279.23
2023-04-24T19:55:22.744Z,283.47
2023-04-24T19:58:36.911Z,282.01
2023-04-24T20:01:51.236Z,282.44
2023-04-24T20:05:00.246Z,289.96
2023-04-24T20:08:11.394Z,298.13
2023-04-24T20:11:18.189Z,295.25
2023-04-24T20:14:25.385Z,304.14
2023-04-24T20:17:31.624Z,298.32
2023-04-24T20:20:41.960Z,296.00
2023-04-24T20:23:47.922Z,299.43
2023-04-24T20:26:56.714Z,302.90
2023-04-24T20:30:05.338Z,299.95
2023-04-24T20:33:12.414Z,286.20
2023-04-24T20:36:24.670Z,297.07
2023-04-24T20:39:31.695Z,296.05
2023-04-24T20:42:38.577Z,275.64
2023-04-24T20:45:45.386Z,254.69
2023-04-24T20:48:52.402Z,249.74
2023-04-24T20:52:02.211Z,232.55
2023-04-24T20:55:23.057Z,199.26
2023-04-24T20:58:30.357Z,173.76
2023-04-24T21:01:44.700Z,165.12
2023-04-24T21:04:51.585Z,140.65
2023-04-24T21:08:00.268Z,132.44
2023-04-24T21:11:07.202Z,130.08
2023-04-24T21:14:13.216Z,122.35
2023-04-24T21:17:20.065Z,122.64
2023-04-24T21:20:33.533Z,119.57
2023-04-24T21:23:43.292Z,122.88
2023-04-24T21:26:52.300Z,116.33
2023-04-24T21:29:59.224Z,135.62
2023-04-24T21:33:06.556Z,141.28
2023-04-24T21:36:13.964Z,102.13
2023-04-24T21:39:22.762Z,100.86
2023-04-24T21:42:29.625Z,102.03
2023-04-24T21:45:35.666Z,95.94
2023-04-24T21:48:42.448Z,96.11
2023-04-24T21:51:48.387Z,87.78
2023-04-24T21:54:59.549Z,83.71
2023-04-24T21:58:05.789Z,88.90
2023-04-24T22:01:15.849Z,89.04
2023-04-24T22:04:22.706Z,83.30
2023-04-24T22:07:29.715Z,79.94
2023-04-24T22:10:38.307Z,74.11
2023-04-24T22:13:45.156Z,73.33
2023-04-24T22:16:51.122Z,348.96
2023-04-24T22:19:57.784Z,97.94
2023-04-24T22:23:04.136Z,75.53
2023-04-24T22:26:13.481Z,74.41
2023-04-24T22:29:19.310Z,76.43
2023-04-24T22:32:26.123Z,77.04
2023-04-24T22:35:32.067Z,79.99
2023-04-24T22:38:38.782Z,78.79
2023-04-24T22:41:47.589Z,81.46
2023-04-24T22:44:54.914Z,81.51
2023-04-24T22:48:01.003Z,78.99
2023-04-24T22:51:08.277Z,74.66
2023-04-24T22:54:14.259Z,74.59
2023-04-24T22:57:23.960Z,76.56
2023-04-24T23:00:30.035Z,82.50
2023-04-24T23:03:37.013Z,87.75
2023-04-24T23:06:48.786Z,93.84
2023-04-24T23:09:55.522Z,96.12
2023-04-24T23:13:04.512Z,107.96
2023-04-24T23:16:12.945Z,110.92
2023-04-24T23:19:18.754Z,118.87
2023-04-24T23:22:25.565Z,122.11
2023-04-24T23:25:33.131Z,121.66
2023-04-24T23:28:42.851Z,122.15
2023-04-24T23:31:48.761Z,120.05
2023-04-24T23:34:56.560Z,123.10
2023-04-24T23:38:02.690Z,123.19
2023-04-24T23:41:20.212Z,114.83
2023-04-24T23:44:28.947Z,120.46
2023-04-24T23:47:37.964Z,115.13
2023-04-24T23:50:44.570Z,115.53
2023-04-24T23:53:59.969Z,117.05
2023-04-24T23:57:22.364Z,120.41
